Ocean Drive — WDH8535 — position and weather

sailwx.info

Track history (hours):
 
Tides and Currents Weather Stations Pressure Air Temp Water Temp Dewpoint Dewpoint Depression Visibility Wind Speed Wind Dir Waves Ship Positions

Ocean Drive

Owner: Gallagher, Spencer R, Fort Lauderdale, FL. More information available from US FCC via Universal Licensing System and Coast Guard Vessel Documentation Center.

Last reported at 2017-Oct-16 23:13 UTC. Time now 2017-Oct-22 23:08 UTC.
Position N 26°01' W 079°47'.

Type: Pleasure craft. MMSI: 369145000.

Date/timePositionNaut miles runAvg speedWind from/ knotsBaromVisibWave heightAir tempDewpointWater temp
2017-Oct-16 23:13N 26°01' W 079°47'2 8.5
2017-Oct-16 23:00N 26°02' W 079°49'4 8.5
2017-Oct-16 22:30N 26°03' W 079°54'4 8.9
2017-Oct-16 22:00N 26°04' W 079°58'5 9.9
2017-Oct-16 21:30N 26°05' W 080°04'3 6.8
2017-Oct-16 21:00N 26°06' W 080°07'1 1.4
2017-Oct-16 20:30N 26°07' W 080°06'0 0.0
2017-Oct-16 20:00N 26°07' W 080°06'0 0.0
2017-Oct-16 19:30N 26°07' W 080°06'0 0.0
2017-Oct-16 19:00N 26°07' W 080°06'0 0.0
2017-Oct-16 18:30N 26°07' W 080°06'0 0.0
2017-Oct-16 18:00N 26°07' W 080°06'0 0.0
2017-Oct-16 17:30N 26°07' W 080°06'0 0.0
2017-Oct-16 17:00N 26°07' W 080°06'0 0.0
2017-Oct-16 16:30N 26°07' W 080°06'0 0.0
2017-Oct-16 16:00N 26°07' W 080°06'0 0.0
2017-Oct-16 15:30N 26°07' W 080°06'0 0.0
2017-Oct-16 15:00N 26°07' W 080°06'0 0.0
2017-Oct-16 14:00N 26°07' W 080°06'0 0.0
2017-Oct-16 13:30N 26°07' W 080°06'0 0.0
2017-Oct-16 13:00N 26°07' W 080°06'0 0.0
2017-Oct-16 12:30N 26°07' W 080°06'0 0.0
2017-Oct-16 12:00N 26°07' W 080°06'0 0.0
2017-Oct-16 11:30N 26°07' W 080°06'0 0.0
2017-Oct-16 11:00N 26°07' W 080°06'0 0.0
2017-Oct-16 10:30N 26°07' W 080°06'0 0.0
2017-Oct-16 10:00N 26°07' W 080°06'0 0.0
2017-Oct-16 09:30N 26°07' W 080°06'0 0.0
2017-Oct-16 09:00N 26°07' W 080°06'0 0.0
2017-Oct-16 08:30N 26°07' W 080°06'0 0.0
2017-Oct-16 08:00N 26°07' W 080°06'0 0.0
2017-Oct-16 07:30N 26°07' W 080°06'0 0.0
2017-Oct-16 07:00N 26°07' W 080°06'0 0.0
2017-Oct-16 06:30N 26°07' W 080°06'0 0.0
2017-Oct-16 06:00N 26°07' W 080°06'0 0.0
2017-Oct-16 05:30N 26°07' W 080°06'0 0.0
2017-Oct-16 05:00N 26°07' W 080°06'0 0.0
2017-Oct-16 04:30N 26°07' W 080°06'0 0.0
2017-Oct-16 04:00N 26°07' W 080°06'0 0.0
2017-Oct-16 03:30N 26°07' W 080°06'0 0.0
2017-Oct-16 03:00N 26°07' W 080°06'0 0.0
2017-Oct-16 02:30N 26°07' W 080°06'0 0.0
2017-Oct-16 02:00N 26°07' W 080°06'0 0.0
2017-Oct-16 01:30N 26°07' W 080°06'0 0.0
2017-Oct-16 01:00N 26°07' W 080°06'0 0.0
2017-Oct-16 00:30N 26°07' W 080°06'0 0.0
2017-Oct-16 00:00N 26°07' W 080°06'0 0.0
2017-Oct-15 23:30N 26°07' W 080°06'0 0.0
2017-Oct-15 23:00N 26°07' W 080°06'2 3.5
2017-Oct-15 22:30N 26°08' W 080°06'1 2.1
2017-Oct-15 22:00N 26°09' W 080°06'2 4.3
2017-Oct-15 21:30N 26°12' W 080°06'3 5.1
2017-Oct-15 21:00N 26°14' W 080°06'2 4.1
2017-Oct-15 20:30N 26°16' W 080°05'3 5.9
2017-Oct-15 20:00N 26°19' W 080°05'1 2.0
2017-Oct-15 19:30N 26°20' W 080°05'1 1.8
2017-Oct-15 19:00N 26°21' W 080°04'0 0.0
2017-Oct-15 18:30N 26°21' W 080°04'0 0.5
2017-Oct-15 18:00N 26°21' W 080°05'2 3.8
2017-Oct-15 17:30N 26°19' W 080°05'3 5.4
2017-Oct-15 16:59N 26°16' W 080°05'2 4.6
2017-Oct-15 16:30N 26°14' W 080°06'3 5.3
2017-Oct-15 16:00N 26°11' W 080°06'3 6.1
2017-Oct-15 15:30N 26°08' W 080°07'1 3.0
2017-Oct-15 15:00N 26°07' W 080°07'1 0.6
2017-Oct-15 14:00N 26°07' W 080°06'0 0.0
2017-Oct-15 13:30N 26°07' W 080°06'0 0.0
2017-Oct-15 13:00N 26°07' W 080°06'0 0.0
2017-Oct-15 12:30N 26°07' W 080°06'0 0.0
2017-Oct-15 12:00N 26°07' W 080°06'0 0.0
2017-Oct-15 11:30N 26°07' W 080°06'0 0.0
2017-Oct-15 11:00N 26°07' W 080°06'0 0.0
2017-Oct-15 10:30N 26°07' W 080°06'0 0.0
2017-Oct-15 10:00N 26°07' W 080°06'0 0.0
2017-Oct-15 09:30N 26°07' W 080°06'0 0.0
2017-Oct-15 09:00N 26°07' W 080°06'0 0.0
2017-Oct-15 08:30N 26°07' W 080°06'0 0.0
2017-Oct-15 08:00N 26°07' W 080°06'0 0.0
2017-Oct-15 07:30N 26°07' W 080°06'0 0.0
2017-Oct-15 07:00N 26°07' W 080°06'0 0.0
2017-Oct-15 06:30N 26°07' W 080°06'0 0.0
2017-Oct-15 06:00N 26°07' W 080°06'0 0.0
2017-Oct-15 05:30N 26°07' W 080°06'0 0.0
2017-Oct-15 05:00N 26°07' W 080°06'0 0.0
2017-Oct-15 04:30N 26°07' W 080°06'0 0.0
2017-Oct-15 04:00N 26°07' W 080°06'0 0.0
2017-Oct-15 03:30N 26°07' W 080°06'0 0.0
2017-Oct-15 03:00N 26°07' W 080°06'0 0.0
2017-Oct-15 02:30N 26°07' W 080°06'0 0.0
2017-Oct-15 02:00N 26°07' W 080°06'0 0.0
2017-Oct-15 01:30N 26°07' W 080°06'0 0.0
2017-Oct-15 01:00N 26°07' W 080°06'0 0.0
2017-Oct-15 00:30N 26°07' W 080°06'0 0.0
2017-Oct-15 00:00N 26°07' W 080°06'0 0.0
2017-Oct-14 23:30N 26°07' W 080°06'0 0.0
2017-Oct-14 23:00N 26°07' W 080°06'0 0.0
2017-Oct-14 22:30N 26°07' W 080°06'0 0.0
2017-Oct-14 22:00N 26°07' W 080°06'0 0.0
2017-Oct-14 21:30N 26°07' W 080°06'0 0.0
2017-Oct-14 20:59N 26°07' W 080°06'0 0.0
2017-Oct-14 20:29N 26°07' W 080°06'0 0.0
2017-Oct-14 20:00N 26°07' W 080°06'1 1.2
2017-Oct-14 19:30N 26°07' W 080°07'0 0.3
2017-Oct-14 19:00N 26°06' W 080°07'0 0.0
2017-Oct-14 18:28N 26°06' W 080°07'0 0.0
2017-Oct-14 17:54N 26°06' W 080°07'0 0.0
2017-Oct-14 17:29N 26°06' W 080°07'0 0.0
2017-Oct-14 16:59N 26°06' W 080°07'0 0.0
2017-Oct-14 16:30N 26°06' W 080°07'0 0.0
2017-Oct-14 16:00N 26°06' W 080°07'0 0.0
2017-Oct-14 15:29N 26°06' W 080°07'0 0.0
2017-Oct-14 14:59N 26°06' W 080°07'0 0.0
2017-Oct-14 14:30N 26°06' W 080°07'0 0.0
2017-Oct-14 14:00N 26°06' W 080°07'0 0.0
2017-Oct-14 13:30N 26°06' W 080°07'0 0.0
2017-Oct-14 13:00N 26°06' W 080°07'0 0.0
2017-Oct-14 12:30N 26°06' W 080°07'0 0.0
2017-Oct-14 12:00N 26°06' W 080°07'0 0.0
2017-Oct-14 11:30N 26°06' W 080°07'0 0.0
2017-Oct-14 11:00N 26°06' W 080°07'0 0.0
2017-Oct-14 10:30N 26°06' W 080°07'0 0.0
2017-Oct-14 10:00N 26°06' W 080°07'0 0.0
2017-Oct-14 09:30N 26°06' W 080°07'0 0.0
2017-Oct-14 09:00N 26°06' W 080°07'0 0.0
2017-Oct-14 08:30N 26°06' W 080°07'0 0.0
2017-Oct-14 08:00N 26°06' W 080°07'0 0.0
2017-Oct-14 07:30N 26°06' W 080°07'0 0.0
2017-Oct-14 07:00N 26°06' W 080°07'0 0.0
2017-Oct-14 06:30N 26°06' W 080°07'0 0.0
2017-Oct-14 06:00N 26°06' W 080°07'0 0.0
2017-Oct-14 05:30N 26°06' W 080°07'0 0.0
2017-Oct-14 05:00N 26°06' W 080°07'0 0.0
2017-Oct-14 04:30N 26°06' W 080°07'0 0.0
2017-Oct-14 03:59N 26°06' W 080°07'0 0.0
2017-Oct-14 03:29N 26°06' W 080°07'0 0.0
2017-Oct-14 03:00N 26°06' W 080°07'0 0.0
2017-Oct-14 02:30N 26°06' W 080°07'0 0.0
2017-Oct-14 02:00N 26°06' W 080°07'0 0.0
2017-Oct-14 01:27N 26°06' W 080°07'0 0.0
2017-Oct-14 00:57N 26°06' W 080°07'0 0.0
2017-Oct-14 00:27N 26°06' W 080°07'0 0.0
2017-Oct-13 23:59N 26°06' W 080°07'0 0.0
2017-Oct-13 23:26N 26°06' W 080°07'0 0.0
2017-Oct-13 23:00N 26°06' W 080°07'0 0.0
2017-Oct-13 22:30N 26°06' W 080°07'0 0.0
2017-Oct-13 21:59N 26°06' W 080°07'0 0.0
2017-Oct-13 21:30N 26°06' W 080°07'0 0.0
2017-Oct-13 21:00N 26°06' W 080°07'0 0.0
2017-Oct-13 20:30N 26°06' W 080°07'0 0.0
2017-Oct-13 20:00N 26°06' W 080°07'0 0.0
2017-Oct-13 19:30N 26°06' W 080°07'0 0.0
2017-Oct-13 19:00N 26°06' W 080°07'0 0.0
2017-Oct-13 18:30N 26°06' W 080°07'0 0.0
2017-Oct-13 18:00N 26°06' W 080°07'0 0.0
2017-Oct-13 17:30N 26°06' W 080°07'0 0.0
2017-Oct-13 17:00N 26°06' W 080°07'0 0.0
2017-Oct-13 16:30N 26°06' W 080°07'0 0.0
2017-Oct-13 16:00N 26°06' W 080°07'0 0.0
2017-Oct-13 15:30N 26°06' W 080°07'0 0.0
2017-Oct-13 15:00N 26°06' W 080°07'0 0.0
2017-Oct-13 14:30N 26°06' W 080°07'0 0.0
2017-Oct-13 14:00N 26°06' W 080°07'0 0.0
2017-Oct-13 13:30N 26°06' W 080°07'0 0.0
2017-Oct-13 13:00N 26°06' W 080°07'0 0.0
2017-Oct-13 12:30N 26°06' W 080°07'0 0.0
2017-Oct-13 12:00N 26°06' W 080°07'0 0.0
2017-Oct-13 11:30N 26°06' W 080°07'0 0.0
2017-Oct-13 11:00N 26°06' W 080°07'0 0.0
2017-Oct-13 10:30N 26°06' W 080°07'0 0.0
2017-Oct-13 10:00N 26°06' W 080°07'0 0.0
2017-Oct-13 09:30N 26°06' W 080°07'0 0.0
2017-Oct-13 08:58N 26°06' W 080°07'0 0.0
2017-Oct-13 08:30N 26°06' W 080°07'0 0.0
2017-Oct-13 08:00N 26°06' W 080°07'0 0.0
2017-Oct-13 07:30N 26°06' W 080°07'0 0.0
2017-Oct-13 07:00N 26°06' W 080°07'0 0.0
2017-Oct-13 06:30N 26°06' W 080°07'0 0.0
2017-Oct-13 06:00N 26°06' W 080°07'0 0.0
2017-Oct-13 05:30N 26°06' W 080°07'0 0.0
2017-Oct-13 05:00N 26°06' W 080°07'0 0.0
2017-Oct-13 04:30N 26°06' W 080°07'0 0.0
2017-Oct-13 04:00N 26°06' W 080°07'0 0.0
2017-Oct-13 03:30N 26°06' W 080°07'0 0.0
2017-Oct-13 03:00N 26°06' W 080°07'0 0.0
2017-Oct-13 02:30N 26°06' W 080°07'0 0.0
2017-Oct-13 02:00N 26°06' W 080°07'0 0.0
2017-Oct-13 01:30N 26°06' W 080°07'0 0.0
2017-Oct-13 01:00N 26°06' W 080°07'0 0.0
2017-Oct-13 00:30N 26°06' W 080°07'0 0.0
2017-Oct-13 00:00N 26°06' W 080°07'0 0.0
2017-Oct-12 23:30N 26°06' W 080°07'0 0.0
2017-Oct-12 23:00N 26°06' W 080°07'0 0.0
2017-Oct-12 22:30N 26°06' W 080°07'0 0.0
2017-Oct-12 22:00N 26°06' W 080°07'0 0.0
2017-Oct-12 21:30N 26°06' W 080°07'0 0.0
2017-Oct-12 21:00N 26°06' W 080°07'0 0.0
2017-Oct-12 20:30N 26°06' W 080°07'0 0.0
2017-Oct-12 20:00N 26°06' W 080°07'0 0.0
2017-Oct-12 19:29N 26°06' W 080°07'0 0.0
2017-Oct-12 19:00N 26°06' W 080°07'0 0.0
2017-Oct-12 18:30N 26°06' W 080°07'0 0.0
2017-Oct-12 18:00N 26°06' W 080°07'0 0.0
2017-Oct-12 17:30N 26°06' W 080°07'0 0.0
2017-Oct-12 17:00N 26°06' W 080°07'0 0.0
2017-Oct-12 16:30N 26°06' W 080°07'0 0.0
2017-Oct-12 16:00N 26°06' W 080°07'0 0.0
2017-Oct-12 15:30N 26°06' W 080°07'0 0.0
2017-Oct-12 15:00N 26°06' W 080°07'0 0.0
2017-Oct-12 14:30N 26°06' W 080°07'0 0.0
2017-Oct-12 14:00N 26°06' W 080°07'0 0.0
2017-Oct-12 13:30N 26°06' W 080°07'0 0.0
2017-Oct-12 13:00N 26°06' W 080°07'0 0.0
2017-Oct-12 12:30N 26°06' W 080°07'0 0.0
2017-Oct-12 12:00N 26°06' W 080°07'0 0.0
2017-Oct-12 11:30N 26°06' W 080°07'0 0.0
2017-Oct-12 11:00N 26°06' W 080°07'0 0.0
2017-Oct-12 10:30N 26°06' W 080°07'0 0.0
2017-Oct-12 10:00N 26°06' W 080°07'0 0.0
2017-Oct-12 09:30N 26°06' W 080°07'0 0.0
2017-Oct-12 09:00N 26°06' W 080°07'0 0.0
2017-Oct-12 08:30N 26°06' W 080°07'0 0.0
2017-Oct-12 08:00N 26°06' W 080°07'0 0.0
2017-Oct-12 07:30N 26°06' W 080°07'0 0.0
2017-Oct-12 07:00N 26°06' W 080°07'0 0.0
2017-Oct-12 06:30N 26°06' W 080°07'0 0.0
2017-Oct-12 06:00N 26°06' W 080°07'0 0.0
2017-Oct-12 05:30N 26°06' W 080°07'0 0.0
2017-Oct-12 05:00N 26°06' W 080°07'0 0.0
2017-Oct-12 04:30N 26°06' W 080°07'0 0.0
2017-Oct-12 04:00N 26°06' W 080°07'0 0.0
2017-Oct-12 03:30N 26°06' W 080°07'0 0.0
2017-Oct-12 03:00N 26°06' W 080°07'0 0.0
2017-Oct-12 02:30N 26°06' W 080°07'0 0.0
2017-Oct-12 02:00N 26°06' W 080°07'0 0.0
2017-Oct-12 01:30N 26°06' W 080°07'0 0.0
2017-Oct-12 01:00N 26°06' W 080°07'0 0.0
2017-Oct-12 00:30N 26°06' W 080°07'0 0.0
2017-Oct-12 00:00N 26°06' W 080°07'0 0.0
2017-Oct-11 23:30N 26°06' W 080°07'0 0.0
2017-Oct-11 23:00N 26°06' W 080°07'0 0.0
2017-Oct-11 22:30N 26°06' W 080°07'0 0.0
2017-Oct-11 22:00N 26°06' W 080°07'0 0.0
2017-Oct-11 21:30N 26°06' W 080°07'0 0.0
2017-Oct-11 21:00N 26°06' W 080°07'0 0.0
2017-Oct-11 20:29N 26°06' W 080°07'0 0.0
2017-Oct-11 20:00N 26°06' W 080°07'0 0.0
2017-Oct-11 19:30N 26°06' W 080°07'0 0.0
2017-Oct-11 19:00N 26°06' W 080°07'0 0.0
2017-Oct-11 18:30N 26°06' W 080°07'0 0.0
2017-Oct-11 18:00N 26°06' W 080°07'0 0.0
2017-Oct-11 17:30N 26°06' W 080°07'0 0.0
2017-Oct-11 17:00N 26°06' W 080°07'0 0.0
2017-Oct-11 00:00N 26°06' W 080°07'0 0.0
2017-Oct-10 23:25N 26°06' W 080°07'0 0.0
2017-Oct-10 23:00N 26°06' W 080°07'0 0.0
2017-Oct-10 22:30N 26°06' W 080°07'0 0.0
2017-Oct-10 22:00N 26°06' W 080°07'0 0.0
2017-Oct-10 21:30N 26°06' W 080°07'0 0.0
2017-Oct-10 21:00N 26°06' W 080°07'0 0.0
2017-Oct-10 20:30N 26°06' W 080°07'0 0.0
2017-Oct-10 20:00N 26°06' W 080°07'0 0.0
2017-Oct-10 19:30N 26°06' W 080°07'0 0.0
2017-Oct-10 19:00N 26°06' W 080°07'0 0.0
2017-Oct-10 18:30N 26°06' W 080°07'0 0.0
2017-Oct-09 15:21N 26°06' W 080°07'0 0.0
2017-Oct-08 23:06N 26°06' W 080°07'0 0.0
2017-Oct-08 23:00N 26°06' W 080°07'0 0.0
2017-Oct-08 22:30N 26°06' W 080°07'0 0.0
2017-Oct-08 22:00N 26°06' W 080°07'0 0.0
2017-Oct-08 21:30N 26°06' W 080°07'0 0.0
2017-Oct-08 21:00N 26°06' W 080°07'0 0.0
2017-Oct-08 20:30N 26°06' W 080°07'0 0.0
2017-Oct-08 20:00N 26°06' W 080°07'0 0.0
2017-Oct-08 19:30N 26°06' W 080°07'0 0.0
2017-Oct-08 19:00N 26°06' W 080°07'0 0.0
2017-Oct-08 18:30N 26°06' W 080°07'0 0.0
2017-Oct-08 18:00N 26°06' W 080°07'0 0.0
2017-Oct-08 17:30N 26°06' W 080°07'0 0.0
2017-Oct-08 17:00N 26°06' W 080°07'0 0.0
2017-Oct-08 16:30N 26°06' W 080°07'0 0.0
2017-Oct-08 16:00N 26°06' W 080°07'0 0.0
2017-Oct-08 15:30N 26°06' W 080°07'0 0.0
2017-Oct-08 15:00N 26°06' W 080°07'0 0.0
2017-Oct-08 14:30N 26°06' W 080°07'0 0.0
2017-Oct-08 14:00N 26°06' W 080°07'0 0.0
2017-Oct-08 13:30N 26°06' W 080°07'0 0.0
2017-Oct-08 13:00N 26°06' W 080°07'0 0.0
2017-Oct-08 12:30N 26°06' W 080°07'0 0.0
2017-Oct-08 12:00N 26°06' W 080°07'0 0.0
2017-Oct-08 11:30N 26°06' W 080°07'0 0.0
2017-Oct-08 11:00N 26°06' W 080°07'0 0.0
2017-Oct-08 10:30N 26°06' W 080°07'0 0.0
2017-Oct-08 10:00N 26°06' W 080°07'0 0.0
2017-Oct-08 09:30N 26°06' W 080°07'0 0.0
2017-Oct-08 09:00N 26°06' W 080°07'0 0.0
2017-Oct-08 08:30N 26°06' W 080°07'0 0.0
2017-Oct-08 08:00N 26°06' W 080°07'0 0.0
2017-Oct-08 07:30N 26°06' W 080°07'0 0.0
2017-Oct-08 07:00N 26°06' W 080°07'0 0.0
2017-Oct-08 06:30N 26°06' W 080°07'0 0.0
2017-Oct-08 06:00N 26°06' W 080°07'0 0.0
2017-Oct-08 05:30N 26°06' W 080°07'0 0.0
2017-Oct-08 05:00N 26°06' W 080°07'0 0.0
2017-Oct-08 04:30N 26°06' W 080°07'0 0.0
2017-Oct-08 04:00N 26°06' W 080°07'0 0.0
2017-Oct-08 03:30N 26°06' W 080°07'0 0.0
2017-Oct-08 03:00N 26°06' W 080°07'0 0.0
2017-Oct-08 02:30N 26°06' W 080°07'0 0.0
2017-Oct-08 02:00N 26°06' W 080°07'0 0.0
2017-Oct-08 01:30N 26°06' W 080°07'0 0.0
2017-Oct-08 01:00N 26°06' W 080°07'0 0.0
2017-Oct-08 00:30N 26°06' W 080°07'0 0.0
2017-Oct-08 00:00N 26°06' W 080°07'0 0.0
2017-Oct-07 23:30N 26°06' W 080°07'0 0.0
2017-Oct-07 23:00N 26°06' W 080°07'0 0.0
2017-Oct-07 22:30N 26°06' W 080°07'0 0.0
2017-Oct-07 22:00N 26°06' W 080°07'0 0.0
2017-Oct-07 21:30N 26°06' W 080°07'0 0.0
2017-Oct-07 21:00N 26°06' W 080°07'0 0.0
2017-Oct-07 20:30N 26°06' W 080°07'0 0.0
2017-Oct-07 20:00N 26°06' W 080°07'0 0.0
2017-Oct-07 19:30N 26°06' W 080°07'0 0.0
2017-Oct-07 19:00N 26°06' W 080°07'0 0.0
2017-Oct-07 18:30N 26°06' W 080°07'0 0.0
2017-Oct-07 18:00N 26°06' W 080°07'0 0.0
2017-Oct-07 17:30N 26°06' W 080°07'0 0.0
2017-Oct-07 17:00N 26°06' W 080°07'0 0.0
2017-Oct-07 16:30N 26°06' W 080°07'0 0.0
2017-Oct-07 16:00N 26°06' W 080°07'0 0.0
2017-Oct-07 15:30N 26°06' W 080°07'0 0.0
2017-Oct-07 15:00N 26°06' W 080°07'0 0.0
2017-Oct-07 14:30N 26°06' W 080°07'0 0.0
2017-Oct-07 14:00N 26°06' W 080°07'0 0.0
2017-Oct-07 13:30N 26°06' W 080°07'0 0.0
2017-Oct-07 13:00N 26°06' W 080°07'0 0.0
2017-Oct-07 12:30N 26°06' W 080°07'0 0.0
2017-Oct-07 12:00N 26°06' W 080°07'0 0.0
2017-Oct-07 11:30N 26°06' W 080°07'0 0.0
2017-Oct-07 11:00N 26°06' W 080°07'0 0.0
2017-Oct-07 10:30N 26°06' W 080°07'0 0.0
2017-Oct-07 10:00N 26°06' W 080°07'0 0.0
2017-Oct-07 09:30N 26°06' W 080°07'0 0.0
2017-Oct-07 09:00N 26°06' W 080°07'0 0.0
2017-Oct-07 08:30N 26°06' W 080°07'0 0.0
2017-Oct-07 08:00N 26°06' W 080°07'0 0.0
2017-Oct-07 07:30N 26°06' W 080°07'0 0.0
2017-Oct-07 07:00N 26°06' W 080°07'0 0.0
2017-Oct-07 06:30N 26°06' W 080°07'0 0.0
2017-Oct-07 06:00N 26°06' W 080°07'0 0.0
2017-Oct-07 05:30N 26°06' W 080°07'0 0.0
2017-Oct-07 05:00N 26°06' W 080°07'0 0.0
2017-Oct-07 04:30N 26°06' W 080°07'0 0.0
2017-Oct-07 04:00N 26°06' W 080°07'0 0.0
2017-Oct-07 03:30N 26°06' W 080°07'0 0.0
2017-Oct-07 03:00N 26°06' W 080°07'0 0.0
2017-Oct-07 02:30N 26°06' W 080°07'0 0.0
2017-Oct-07 02:00N 26°06' W 080°07'0 0.0
2017-Oct-07 01:30N 26°06' W 080°07'0 0.0
2017-Oct-07 01:00N 26°06' W 080°07'0 0.0
2017-Oct-07 00:30N 26°06' W 080°07'0 0.0
2017-Oct-07 00:00N 26°06' W 080°07'0 0.0
2017-Oct-06 23:30N 26°06' W 080°07'  
Track history (hours):
 
Tides and Currents Weather Stations Pressure Air Temp Water Temp Dewpoint Dewpoint Depression Visibility Wind Speed Wind Dir Waves Ship Positions

Ocean Drive

Owner: Gallagher, Spencer R, Fort Lauderdale, FL. More information available from US FCC via Universal Licensing System and Coast Guard Vessel Documentation Center.

Last reported at 2017-Oct-16 23:13 UTC. Time now 2017-Oct-22 23:08 UTC.
Position N 26°01' W 079°47'.

Type: Pleasure craft. MMSI: 369145000.

Date/timePositionNaut miles runAvg speedWind from/ knotsBaromVisibWave heightAir tempDewpointWater temp
2017-Oct-16 23:13N 26°01' W 079°47'2 8.5
2017-Oct-16 23:00N 26°02' W 079°49'4 8.5
2017-Oct-16 22:30N 26°03' W 079°54'4 8.9
2017-Oct-16 22:00N 26°04' W 079°58'5 9.9
2017-Oct-16 21:30N 26°05' W 080°04'3 6.8
2017-Oct-16 21:00N 26°06' W 080°07'1 1.4
2017-Oct-16 20:30N 26°07' W 080°06'0 0.0
2017-Oct-16 20:00N 26°07' W 080°06'0 0.0
2017-Oct-16 19:30N 26°07' W 080°06'0 0.0
2017-Oct-16 19:00N 26°07' W 080°06'0 0.0
2017-Oct-16 18:30N 26°07' W 080°06'0 0.0
2017-Oct-16 18:00N 26°07' W 080°06'0 0.0
2017-Oct-16 17:30N 26°07' W 080°06'0 0.0
2017-Oct-16 17:00N 26°07' W 080°06'0 0.0
2017-Oct-16 16:30N 26°07' W 080°06'0 0.0
2017-Oct-16 16:00N 26°07' W 080°06'0 0.0
2017-Oct-16 15:30N 26°07' W 080°06'0 0.0
2017-Oct-16 15:00N 26°07' W 080°06'0 0.0
2017-Oct-16 14:00N 26°07' W 080°06'0 0.0
2017-Oct-16 13:30N 26°07' W 080°06'0 0.0
2017-Oct-16 13:00N 26°07' W 080°06'0 0.0
2017-Oct-16 12:30N 26°07' W 080°06'0 0.0
2017-Oct-16 12:00N 26°07' W 080°06'0 0.0
2017-Oct-16 11:30N 26°07' W 080°06'0 0.0
2017-Oct-16 11:00N 26°07' W 080°06'0 0.0
2017-Oct-16 10:30N 26°07' W 080°06'0 0.0
2017-Oct-16 10:00N 26°07' W 080°06'0 0.0
2017-Oct-16 09:30N 26°07' W 080°06'0 0.0
2017-Oct-16 09:00N 26°07' W 080°06'0 0.0
2017-Oct-16 08:30N 26°07' W 080°06'0 0.0
2017-Oct-16 08:00N 26°07' W 080°06'0 0.0
2017-Oct-16 07:30N 26°07' W 080°06'0 0.0
2017-Oct-16 07:00N 26°07' W 080°06'0 0.0
2017-Oct-16 06:30N 26°07' W 080°06'0 0.0
2017-Oct-16 06:00N 26°07' W 080°06'0 0.0
2017-Oct-16 05:30N 26°07' W 080°06'0 0.0
2017-Oct-16 05:00N 26°07' W 080°06'0 0.0
2017-Oct-16 04:30N 26°07' W 080°06'0 0.0
2017-Oct-16 04:00N 26°07' W 080°06'0 0.0
2017-Oct-16 03:30N 26°07' W 080°06'0 0.0
2017-Oct-16 03:00N 26°07' W 080°06'0 0.0
2017-Oct-16 02:30N 26°07' W 080°06'0 0.0
2017-Oct-16 02:00N 26°07' W 080°06'0 0.0
2017-Oct-16 01:30N 26°07' W 080°06'0 0.0
2017-Oct-16 01:00N 26°07' W 080°06'0 0.0
2017-Oct-16 00:30N 26°07' W 080°06'0 0.0
2017-Oct-16 00:00N 26°07' W 080°06'0 0.0
2017-Oct-15 23:30N 26°07' W 080°06'0 0.0
2017-Oct-15 23:00N 26°07' W 080°06'2 3.5
2017-Oct-15 22:30N 26°08' W 080°06'1 2.1
2017-Oct-15 22:00N 26°09' W 080°06'2 4.3
2017-Oct-15 21:30N 26°12' W 080°06'3 5.1
2017-Oct-15 21:00N 26°14' W 080°06'2 4.1
2017-Oct-15 20:30N 26°16' W 080°05'3 5.9
2017-Oct-15 20:00N 26°19' W 080°05'1 2.0
2017-Oct-15 19:30N 26°20' W 080°05'1 1.8
2017-Oct-15 19:00N 26°21' W 080°04'0 0.0
2017-Oct-15 18:30N 26°21' W 080°04'0 0.5
2017-Oct-15 18:00N 26°21' W 080°05'2 3.8
2017-Oct-15 17:30N 26°19' W 080°05'3 5.4
2017-Oct-15 16:59N 26°16' W 080°05'2 4.6
2017-Oct-15 16:30N 26°14' W 080°06'3 5.3
2017-Oct-15 16:00N 26°11' W 080°06'3 6.1
2017-Oct-15 15:30N 26°08' W 080°07'1 3.0
2017-Oct-15 15:00N 26°07' W 080°07'1 0.6
2017-Oct-15 14:00N 26°07' W 080°06'0 0.0
2017-Oct-15 13:30N 26°07' W 080°06'0 0.0
2017-Oct-15 13:00N 26°07' W 080°06'0 0.0
2017-Oct-15 12:30N 26°07' W 080°06'0 0.0
2017-Oct-15 12:00N 26°07' W 080°06'0 0.0
2017-Oct-15 11:30N 26°07' W 080°06'0 0.0
2017-Oct-15 11:00N 26°07' W 080°06'0 0.0
2017-Oct-15 10:30N 26°07' W 080°06'0 0.0
2017-Oct-15 10:00N 26°07' W 080°06'0 0.0
2017-Oct-15 09:30N 26°07' W 080°06'0 0.0
2017-Oct-15 09:00N 26°07' W 080°06'0 0.0
2017-Oct-15 08:30N 26°07' W 080°06'0 0.0
2017-Oct-15 08:00N 26°07' W 080°06'0 0.0
2017-Oct-15 07:30N 26°07' W 080°06'0 0.0
2017-Oct-15 07:00N 26°07' W 080°06'0 0.0
2017-Oct-15 06:30N 26°07' W 080°06'0 0.0
2017-Oct-15 06:00N 26°07' W 080°06'0 0.0
2017-Oct-15 05:30N 26°07' W 080°06'0 0.0
2017-Oct-15 05:00N 26°07' W 080°06'0 0.0
2017-Oct-15 04:30N 26°07' W 080°06'0 0.0
2017-Oct-15 04:00N 26°07' W 080°06'0 0.0
2017-Oct-15 03:30N 26°07' W 080°06'0 0.0
2017-Oct-15 03:00N 26°07' W 080°06'0 0.0
2017-Oct-15 02:30N 26°07' W 080°06'0 0.0
2017-Oct-15 02:00N 26°07' W 080°06'0 0.0
2017-Oct-15 01:30N 26°07' W 080°06'0 0.0
2017-Oct-15 01:00N 26°07' W 080°06'0 0.0
2017-Oct-15 00:30N 26°07' W 080°06'0 0.0
2017-Oct-15 00:00N 26°07' W 080°06'0 0.0
2017-Oct-14 23:30N 26°07' W 080°06'0 0.0
2017-Oct-14 23:00N 26°07' W 080°06'0 0.0
2017-Oct-14 22:30N 26°07' W 080°06'0 0.0
2017-Oct-14 22:00N 26°07' W 080°06'0 0.0
2017-Oct-14 21:30N 26°07' W 080°06'0 0.0
2017-Oct-14 20:59N 26°07' W 080°06'0 0.0
2017-Oct-14 20:29N 26°07' W 080°06'0 0.0
2017-Oct-14 20:00N 26°07' W 080°06'1 1.2
2017-Oct-14 19:30N 26°07' W 080°07'0 0.3
2017-Oct-14 19:00N 26°06' W 080°07'0 0.0
2017-Oct-14 18:28N 26°06' W 080°07'0 0.0
2017-Oct-14 17:54N 26°06' W 080°07'0 0.0
2017-Oct-14 17:29N 26°06' W 080°07'0 0.0
2017-Oct-14 16:59N 26°06' W 080°07'0 0.0
2017-Oct-14 16:30N 26°06' W 080°07'0 0.0
2017-Oct-14 16:00N 26°06' W 080°07'0 0.0
2017-Oct-14 15:29N 26°06' W 080°07'0 0.0
2017-Oct-14 14:59N 26°06' W 080°07'0 0.0
2017-Oct-14 14:30N 26°06' W 080°07'0 0.0
2017-Oct-14 14:00N 26°06' W 080°07'0 0.0
2017-Oct-14 13:30N 26°06' W 080°07'0 0.0
2017-Oct-14 13:00N 26°06' W 080°07'0 0.0
2017-Oct-14 12:30N 26°06' W 080°07'0 0.0
2017-Oct-14 12:00N 26°06' W 080°07'0 0.0
2017-Oct-14 11:30N 26°06' W 080°07'0 0.0
2017-Oct-14 11:00N 26°06' W 080°07'0 0.0
2017-Oct-14 10:30N 26°06' W 080°07'0 0.0
2017-Oct-14 10:00N 26°06' W 080°07'0 0.0
2017-Oct-14 09:30N 26°06' W 080°07'0 0.0
2017-Oct-14 09:00N 26°06' W 080°07'0 0.0
2017-Oct-14 08:30N 26°06' W 080°07'0 0.0
2017-Oct-14 08:00N 26°06' W 080°07'0 0.0
2017-Oct-14 07:30N 26°06' W 080°07'0 0.0
2017-Oct-14 07:00N 26°06' W 080°07'0 0.0
2017-Oct-14 06:30N 26°06' W 080°07'0 0.0
2017-Oct-14 06:00N 26°06' W 080°07'0 0.0
2017-Oct-14 05:30N 26°06' W 080°07'0 0.0
2017-Oct-14 05:00N 26°06' W 080°07'0 0.0
2017-Oct-14 04:30N 26°06' W 080°07'0 0.0
2017-Oct-14 03:59N 26°06' W 080°07'0 0.0
2017-Oct-14 03:29N 26°06' W 080°07'0 0.0
2017-Oct-14 03:00N 26°06' W 080°07'0 0.0
2017-Oct-14 02:30N 26°06' W 080°07'0 0.0
2017-Oct-14 02:00N 26°06' W 080°07'0 0.0
2017-Oct-14 01:27N 26°06' W 080°07'0 0.0
2017-Oct-14 00:57N 26°06' W 080°07'0 0.0
2017-Oct-14 00:27N 26°06' W 080°07'0 0.0
2017-Oct-13 23:59N 26°06' W 080°07'0 0.0
2017-Oct-13 23:26N 26°06' W 080°07'0 0.0
2017-Oct-13 23:00N 26°06' W 080°07'0 0.0
2017-Oct-13 22:30N 26°06' W 080°07'0 0.0
2017-Oct-13 21:59N 26°06' W 080°07'0 0.0
2017-Oct-13 21:30N 26°06' W 080°07'0 0.0
2017-Oct-13 21:00N 26°06' W 080°07'0 0.0
2017-Oct-13 20:30N 26°06' W 080°07'0 0.0
2017-Oct-13 20:00N 26°06' W 080°07'0 0.0
2017-Oct-13 19:30N 26°06' W 080°07'0 0.0
2017-Oct-13 19:00N 26°06' W 080°07'0 0.0
2017-Oct-13 18:30N 26°06' W 080°07'0 0.0
2017-Oct-13 18:00N 26°06' W 080°07'0 0.0
2017-Oct-13 17:30N 26°06' W 080°07'0 0.0
2017-Oct-13 17:00N 26°06' W 080°07'0 0.0
2017-Oct-13 16:30N 26°06' W 080°07'0 0.0
2017-Oct-13 16:00N 26°06' W 080°07'0 0.0
2017-Oct-13 15:30N 26°06' W 080°07'0 0.0
2017-Oct-13 15:00N 26°06' W 080°07'0 0.0
2017-Oct-13 14:30N 26°06' W 080°07'0 0.0
2017-Oct-13 14:00N 26°06' W 080°07'0 0.0
2017-Oct-13 13:30N 26°06' W 080°07'0 0.0
2017-Oct-13 13:00N 26°06' W 080°07'0 0.0
2017-Oct-13 12:30N 26°06' W 080°07'0 0.0
2017-Oct-13 12:00N 26°06' W 080°07'0 0.0
2017-Oct-13 11:30N 26°06' W 080°07'0 0.0
2017-Oct-13 11:00N 26°06' W 080°07'0 0.0
2017-Oct-13 10:30N 26°06' W 080°07'0 0.0
2017-Oct-13 10:00N 26°06' W 080°07'0 0.0
2017-Oct-13 09:30N 26°06' W 080°07'0 0.0
2017-Oct-13 08:58N 26°06' W 080°07'0 0.0
2017-Oct-13 08:30N 26°06' W 080°07'0 0.0
2017-Oct-13 08:00N 26°06' W 080°07'0 0.0
2017-Oct-13 07:30N 26°06' W 080°07'0 0.0
2017-Oct-13 07:00N 26°06' W 080°07'0 0.0
2017-Oct-13 06:30N 26°06' W 080°07'0 0.0
2017-Oct-13 06:00N 26°06' W 080°07'0 0.0
2017-Oct-13 05:30N 26°06' W 080°07'0 0.0
2017-Oct-13 05:00N 26°06' W 080°07'0 0.0
2017-Oct-13 04:30N 26°06' W 080°07'0 0.0
2017-Oct-13 04:00N 26°06' W 080°07'0 0.0
2017-Oct-13 03:30N 26°06' W 080°07'0 0.0
2017-Oct-13 03:00N 26°06' W 080°07'0 0.0
2017-Oct-13 02:30N 26°06' W 080°07'0 0.0
2017-Oct-13 02:00N 26°06' W 080°07'0 0.0
2017-Oct-13 01:30N 26°06' W 080°07'0 0.0
2017-Oct-13 01:00N 26°06' W 080°07'0 0.0
2017-Oct-13 00:30N 26°06' W 080°07'0 0.0
2017-Oct-13 00:00N 26°06' W 080°07'0 0.0
2017-Oct-12 23:30N 26°06' W 080°07'0 0.0
2017-Oct-12 23:00N 26°06' W 080°07'0 0.0
2017-Oct-12 22:30N 26°06' W 080°07'0 0.0
2017-Oct-12 22:00N 26°06' W 080°07'0 0.0
2017-Oct-12 21:30N 26°06' W 080°07'0 0.0
2017-Oct-12 21:00N 26°06' W 080°07'0 0.0
2017-Oct-12 20:30N 26°06' W 080°07'0 0.0
2017-Oct-12 20:00N 26°06' W 080°07'0 0.0
2017-Oct-12 19:29N 26°06' W 080°07'0 0.0
2017-Oct-12 19:00N 26°06' W 080°07'0 0.0
2017-Oct-12 18:30N 26°06' W 080°07'0 0.0
2017-Oct-12 18:00N 26°06' W 080°07'0 0.0
2017-Oct-12 17:30N 26°06' W 080°07'0 0.0
2017-Oct-12 17:00N 26°06' W 080°07'0 0.0
2017-Oct-12 16:30N 26°06' W 080°07'0 0.0
2017-Oct-12 16:00N 26°06' W 080°07'0 0.0
2017-Oct-12 15:30N 26°06' W 080°07'0 0.0
2017-Oct-12 15:00N 26°06' W 080°07'0 0.0
2017-Oct-12 14:30N 26°06' W 080°07'0 0.0
2017-Oct-12 14:00N 26°06' W 080°07'0 0.0
2017-Oct-12 13:30N 26°06' W 080°07'0 0.0
2017-Oct-12 13:00N 26°06' W 080°07'0 0.0
2017-Oct-12 12:30N 26°06' W 080°07'0 0.0
2017-Oct-12 12:00N 26°06' W 080°07'0 0.0
2017-Oct-12 11:30N 26°06' W 080°07'0 0.0
2017-Oct-12 11:00N 26°06' W 080°07'0 0.0
2017-Oct-12 10:30N 26°06' W 080°07'0 0.0
2017-Oct-12 10:00N 26°06' W 080°07'0 0.0
2017-Oct-12 09:30N 26°06' W 080°07'0 0.0
2017-Oct-12 09:00N 26°06' W 080°07'0 0.0
2017-Oct-12 08:30N 26°06' W 080°07'0 0.0
2017-Oct-12 08:00N 26°06' W 080°07'0 0.0
2017-Oct-12 07:30N 26°06' W 080°07'0 0.0
2017-Oct-12 07:00N 26°06' W 080°07'0 0.0
2017-Oct-12 06:30N 26°06' W 080°07'0 0.0
2017-Oct-12 06:00N 26°06' W 080°07'0 0.0
2017-Oct-12 05:30N 26°06' W 080°07'0 0.0
2017-Oct-12 05:00N 26°06' W 080°07'0 0.0
2017-Oct-12 04:30N 26°06' W 080°07'0 0.0
2017-Oct-12 04:00N 26°06' W 080°07'0 0.0
2017-Oct-12 03:30N 26°06' W 080°07'0 0.0
2017-Oct-12 03:00N 26°06' W 080°07'0 0.0
2017-Oct-12 02:30N 26°06' W 080°07'0 0.0
2017-Oct-12 02:00N 26°06' W 080°07'0 0.0
2017-Oct-12 01:30N 26°06' W 080°07'0 0.0
2017-Oct-12 01:00N 26°06' W 080°07'0 0.0
2017-Oct-12 00:30N 26°06' W 080°07'0 0.0
2017-Oct-12 00:00N 26°06' W 080°07'0 0.0
2017-Oct-11 23:30N 26°06' W 080°07'0 0.0
2017-Oct-11 23:00N 26°06' W 080°07'0 0.0
2017-Oct-11 22:30N 26°06' W 080°07'0 0.0
2017-Oct-11 22:00N 26°06' W 080°07'0 0.0
2017-Oct-11 21:30N 26°06' W 080°07'0 0.0
2017-Oct-11 21:00N 26°06' W 080°07'0 0.0
2017-Oct-11 20:29N 26°06' W 080°07'0 0.0
2017-Oct-11 20:00N 26°06' W 080°07'0 0.0
2017-Oct-11 19:30N 26°06' W 080°07'0 0.0
2017-Oct-11 19:00N 26°06' W 080°07'0 0.0
2017-Oct-11 18:30N 26°06' W 080°07'0 0.0
2017-Oct-11 18:00N 26°06' W 080°07'0 0.0
2017-Oct-11 17:30N 26°06' W 080°07'0 0.0
2017-Oct-11 17:00N 26°06' W 080°07'0 0.0
2017-Oct-11 00:00N 26°06' W 080°07'0 0.0
2017-Oct-10 23:25N 26°06' W 080°07'0 0.0
2017-Oct-10 23:00N 26°06' W 080°07'0 0.0
2017-Oct-10 22:30N 26°06' W 080°07'0 0.0
2017-Oct-10 22:00N 26°06' W 080°07'0 0.0
2017-Oct-10 21:30N 26°06' W 080°07'0 0.0
2017-Oct-10 21:00N 26°06' W 080°07'0 0.0
2017-Oct-10 20:30N 26°06' W 080°07'0 0.0
2017-Oct-10 20:00N 26°06' W 080°07'0 0.0
2017-Oct-10 19:30N 26°06' W 080°07'0 0.0
2017-Oct-10 19:00N 26°06' W 080°07'0 0.0
2017-Oct-10 18:30N 26°06' W 080°07'0 0.0
2017-Oct-09 15:21N 26°06' W 080°07'0 0.0
2017-Oct-08 23:06N 26°06' W 080°07'0 0.0
2017-Oct-08 23:00N 26°06' W 080°07'0 0.0
2017-Oct-08 22:30N 26°06' W 080°07'0 0.0
2017-Oct-08 22:00N 26°06' W 080°07'0 0.0
2017-Oct-08 21:30N 26°06' W 080°07'0 0.0
2017-Oct-08 21:00N 26°06' W 080°07'0 0.0
2017-Oct-08 20:30N 26°06' W 080°07'0 0.0
2017-Oct-08 20:00N 26°06' W 080°07'0 0.0
2017-Oct-08 19:30N 26°06' W 080°07'0 0.0
2017-Oct-08 19:00N 26°06' W 080°07'0 0.0
2017-Oct-08 18:30N 26°06' W 080°07'0 0.0
2017-Oct-08 18:00N 26°06' W 080°07'0 0.0
2017-Oct-08 17:30N 26°06' W 080°07'0 0.0
2017-Oct-08 17:00N 26°06' W 080°07'0 0.0
2017-Oct-08 16:30N 26°06' W 080°07'0 0.0
2017-Oct-08 16:00N 26°06' W 080°07'0 0.0
2017-Oct-08 15:30N 26°06' W 080°07'0 0.0
2017-Oct-08 15:00N 26°06' W 080°07'0 0.0
2017-Oct-08 14:30N 26°06' W 080°07'0 0.0
2017-Oct-08 14:00N 26°06' W 080°07'0 0.0
2017-Oct-08 13:30N 26°06' W 080°07'0 0.0
2017-Oct-08 13:00N 26°06' W 080°07'0 0.0
2017-Oct-08 12:30N 26°06' W 080°07'0 0.0
2017-Oct-08 12:00N 26°06' W 080°07'0 0.0
2017-Oct-08 11:30N 26°06' W 080°07'0 0.0
2017-Oct-08 11:00N 26°06' W 080°07'0 0.0
2017-Oct-08 10:30N 26°06' W 080°07'0 0.0
2017-Oct-08 10:00N 26°06' W 080°07'0 0.0
2017-Oct-08 09:30N 26°06' W 080°07'0 0.0
2017-Oct-08 09:00N 26°06' W 080°07'0 0.0
2017-Oct-08 08:30N 26°06' W 080°07'0 0.0
2017-Oct-08 08:00N 26°06' W 080°07'0 0.0
2017-Oct-08 07:30N 26°06' W 080°07'0 0.0
2017-Oct-08 07:00N 26°06' W 080°07'0 0.0
2017-Oct-08 06:30N 26°06' W 080°07'0 0.0
2017-Oct-08 06:00N 26°06' W 080°07'0 0.0
2017-Oct-08 05:30N 26°06' W 080°07'0 0.0
2017-Oct-08 05:00N 26°06' W 080°07'0 0.0
2017-Oct-08 04:30N 26°06' W 080°07'0 0.0
2017-Oct-08 04:00N 26°06' W 080°07'0 0.0
2017-Oct-08 03:30N 26°06' W 080°07'0 0.0
2017-Oct-08 03:00N 26°06' W 080°07'0 0.0
2017-Oct-08 02:30N 26°06' W 080°07'0 0.0
2017-Oct-08 02:00N 26°06' W 080°07'0 0.0
2017-Oct-08 01:30N 26°06' W 080°07'0 0.0
2017-Oct-08 01:00N 26°06' W 080°07'0 0.0
2017-Oct-08 00:30N 26°06' W 080°07'0 0.0
2017-Oct-08 00:00N 26°06' W 080°07'0 0.0
2017-Oct-07 23:30N 26°06' W 080°07'0 0.0
2017-Oct-07 23:00N 26°06' W 080°07'0 0.0
2017-Oct-07 22:30N 26°06' W 080°07'0 0.0
2017-Oct-07 22:00N 26°06' W 080°07'0 0.0
2017-Oct-07 21:30N 26°06' W 080°07'0 0.0
2017-Oct-07 21:00N 26°06' W 080°07'0 0.0
2017-Oct-07 20:30N 26°06' W 080°07'0 0.0
2017-Oct-07 20:00N 26°06' W 080°07'0 0.0
2017-Oct-07 19:30N 26°06' W 080°07'0 0.0
2017-Oct-07 19:00N 26°06' W 080°07'0 0.0
2017-Oct-07 18:30N 26°06' W 080°07'0 0.0
2017-Oct-07 18:00N 26°06' W 080°07'0 0.0
2017-Oct-07 17:30N 26°06' W 080°07'0 0.0
2017-Oct-07 17:00N 26°06' W 080°07'0 0.0
2017-Oct-07 16:30N 26°06' W 080°07'0 0.0
2017-Oct-07 16:00N 26°06' W 080°07'0 0.0
2017-Oct-07 15:30N 26°06' W 080°07'0 0.0
2017-Oct-07 15:00N 26°06' W 080°07'0 0.0
2017-Oct-07 14:30N 26°06' W 080°07'0 0.0
2017-Oct-07 14:00N 26°06' W 080°07'0 0.0
2017-Oct-07 13:30N 26°06' W 080°07'0 0.0
2017-Oct-07 13:00N 26°06' W 080°07'0 0.0
2017-Oct-07 12:30N 26°06' W 080°07'0 0.0
2017-Oct-07 12:00N 26°06' W 080°07'0 0.0
2017-Oct-07 11:30N 26°06' W 080°07'0 0.0
2017-Oct-07 11:00N 26°06' W 080°07'0 0.0
2017-Oct-07 10:30N 26°06' W 080°07'0 0.0
2017-Oct-07 10:00N 26°06' W 080°07'0 0.0
2017-Oct-07 09:30N 26°06' W 080°07'0 0.0
2017-Oct-07 09:00N 26°06' W 080°07'0 0.0
2017-Oct-07 08:30N 26°06' W 080°07'0 0.0
2017-Oct-07 08:00N 26°06' W 080°07'0 0.0
2017-Oct-07 07:30N 26°06' W 080°07'0 0.0
2017-Oct-07 07:00N 26°06' W 080°07'0 0.0
2017-Oct-07 06:30N 26°06' W 080°07'0 0.0
2017-Oct-07 06:00N 26°06' W 080°07'0 0.0
2017-Oct-07 05:30N 26°06' W 080°07'0 0.0
2017-Oct-07 05:00N 26°06' W 080°07'0 0.0
2017-Oct-07 04:30N 26°06' W 080°07'0 0.0
2017-Oct-07 04:00N 26°06' W 080°07'0 0.0
2017-Oct-07 03:30N 26°06' W 080°07'0 0.0
2017-Oct-07 03:00N 26°06' W 080°07'0 0.0
2017-Oct-07 02:30N 26°06' W 080°07'0 0.0
2017-Oct-07 02:00N 26°06' W 080°07'0 0.0
2017-Oct-07 01:30N 26°06' W 080°07'0 0.0
2017-Oct-07 01:00N 26°06' W 080°07'0 0.0
2017-Oct-07 00:30N 26°06' W 080°07'0 0.0
2017-Oct-07 00:00N 26°06' W 080°07'0 0.0
2017-Oct-06 23:30N 26°06' W 080°07'  

Dump ship's entire track history